sensor_id;sensor_type;location;lat;lon;timestamp;P1;durP1;ratioP1;P2;durP2;ratioP2
37845;SDS011;23686;49.828;8.702;2022-09-17T00:00:16;2.72;;;0.90;;
37845;SDS011;23686;49.828;8.702;2022-09-17T00:02:41;1.70;;;1.00;;
37845;SDS011;23686;49.828;8.702;2022-09-17T00:05:10;3.97;;;1.10;;
37845;SDS011;23686;49.828;8.702;2022-09-17T00:07:36;3.17;;;1.00;;
37845;SDS011;23686;49.828;8.702;2022-09-17T00:10:01;1.35;;;0.65;;
37845;SDS011;23686;49.828;8.702;2022-09-17T00:12:27;5.75;;;1.50;;
37845;SDS011;23686;49.828;8.702;2022-09-17T00:14:54;3.70;;;1.27;;
37845;SDS011;23686;49.828;8.702;2022-09-17T00:17:20;3.22;;;0.90;;
37845;SDS011;23686;49.828;8.702;2022-09-17T00:19:45;1.92;;;0.93;;
37845;SDS011;23686;49.828;8.702;2022-09-17T00:22:11;1.10;;;0.73;;
37845;SDS011;23686;49.828;8.702;2022-09-17T00:24:36;0.90;;;0.90;;
37845;SDS011;23686;49.828;8.702;2022-09-17T00:27:02;2.90;;;1.02;;
37845;SDS011;23686;49.828;8.702;2022-09-17T00:29:27;2.90;;;1.02;;
37845;SDS011;23686;49.828;8.702;2022-09-17T00:31:53;2.22;;;0.90;;
37845;SDS011;23686;49.828;8.702;2022-09-17T00:34:19;1.45;;;1.00;;
37845;SDS011;23686;49.828;8.702;2022-09-17T00:36:44;2.40;;;1.02;;
37845;SDS011;23686;49.828;8.702;2022-09-17T00:39:10;2.88;;;0.77;;
37845;SDS011;23686;49.828;8.702;2022-09-17T00:41:37;0.93;;;0.70;;
37845;SDS011;23686;49.828;8.702;2022-09-17T00:47:02;5.75;;;1.27;;
37845;SDS011;23686;49.828;8.702;2022-09-17T00:49:28;4.13;;;0.93;;
37845;SDS011;23686;49.828;8.702;2022-09-17T00:51:56;4.30;;;0.90;;
37845;SDS011;23686;49.828;8.702;2022-09-17T00:54:28;3.47;;;0.80;;
37845;SDS011;23686;49.828;8.702;2022-09-17T00:56:54;0.75;;;0.63;;
37845;SDS011;23686;49.828;8.702;2022-09-17T00:59:21;2.50;;;1.02;;
37845;SDS011;23686;49.828;8.702;2022-09-17T01:01:47;2.80;;;0.95;;
37845;SDS011;23686;49.828;8.702;2022-09-17T01:04:17;4.03;;;1.08;;
37845;SDS011;23686;49.828;8.702;2022-09-17T01:09:46;3.05;;;1.30;;
37845;SDS011;23686;49.828;8.702;2022-09-17T01:18:10;3.67;;;0.80;;
37845;SDS011;23686;49.828;8.702;2022-09-17T01:20:59;3.72;;;1.00;;
37845;SDS011;23686;49.828;8.702;2022-09-17T01:29:41;2.60;;;1.17;;
37845;SDS011;23686;49.828;8.702;2022-09-17T01:40:27;3.95;;;1.20;;
37845;SDS011;23686;49.828;8.702;2022-09-17T01:43:20;2.13;;;1.20;;
37845;SDS011;23686;49.828;8.702;2022-09-17T01:45:49;3.95;;;1.20;;
37845;SDS011;23686;49.828;8.702;2022-09-17T01:48:20;5.75;;;1.25;;
37845;SDS011;23686;49.828;8.702;2022-09-17T01:50:55;4.20;;;1.00;;
37845;SDS011;23686;49.828;8.702;2022-09-17T01:53:24;5.80;;;1.27;;
37845;SDS011;23686;49.828;8.702;2022-09-17T01:55:53;5.97;;;1.20;;
37845;SDS011;23686;49.828;8.702;2022-09-17T01:58:24;2.05;;;0.95;;
37845;SDS011;23686;49.828;8.702;2022-09-17T02:00:54;3.13;;;1.85;;
37845;SDS011;23686;49.828;8.702;2022-09-17T02:03:27;2.00;;;1.33;;
37845;SDS011;23686;49.828;8.702;2022-09-17T02:06:00;9.63;;;1.48;;
37845;SDS011;23686;49.828;8.702;2022-09-17T02:08:44;7.15;;;1.92;;
37845;SDS011;23686;49.828;8.702;2022-09-17T02:11:15;2.42;;;1.10;;
37845;SDS011;23686;49.828;8.702;2022-09-17T02:16:39;2.67;;;1.30;;
37845;SDS011;23686;49.828;8.702;2022-09-17T02:19:24;6.75;;;1.13;;
37845;SDS011;23686;49.828;8.702;2022-09-17T02:24:32;6.35;;;1.48;;
37845;SDS011;23686;49.828;8.702;2022-09-17T02:27:10;5.45;;;1.80;;
37845;SDS011;23686;49.828;8.702;2022-09-17T02:29:43;3.85;;;1.40;;
37845;SDS011;23686;49.828;8.702;2022-09-17T02:32:09;5.45;;;1.35;;
37845;SDS011;23686;49.828;8.702;2022-09-17T02:34:36;3.65;;;1.27;;
37845;SDS011;23686;49.828;8.702;2022-09-17T02:37:02;7.45;;;1.55;;
37845;SDS011;23686;49.828;8.702;2022-09-17T02:39:28;4.50;;;1.20;;
37845;SDS011;23686;49.828;8.702;2022-09-17T02:50:57;2.67;;;1.13;;
37845;SDS011;23686;49.828;8.702;2022-09-17T02:53:57;3.83;;;1.30;;
37845;SDS011;23686;49.828;8.702;2022-09-17T02:59:23;4.15;;;1.50;;
37845;SDS011;23686;49.828;8.702;2022-09-17T03:04:23;3.58;;;1.42;;
37845;SDS011;23686;49.828;8.702;2022-09-17T03:06:52;3.47;;;1.45;;
37845;SDS011;23686;49.828;8.702;2022-09-17T03:09:19;4.22;;;1.48;;
37845;SDS011;23686;49.828;8.702;2022-09-17T03:11:44;6.05;;;2.10;;
37845;SDS011;23686;49.828;8.702;2022-09-17T03:14:10;6.45;;;1.80;;
37845;SDS011;23686;49.828;8.702;2022-09-17T03:16:36;5.55;;;1.85;;
37845;SDS011;23686;49.828;8.702;2022-09-17T03:19:01;3.40;;;1.52;;
37845;SDS011;23686;49.828;8.702;2022-09-17T03:21:27;4.10;;;1.83;;
37845;SDS011;23686;49.828;8.702;2022-09-17T03:23:53;4.70;;;1.60;;
37845;SDS011;23686;49.828;8.702;2022-09-17T03:26:19;6.47;;;1.52;;
37845;SDS011;23686;49.828;8.702;2022-09-17T03:28:44;4.47;;;1.60;;
37845;SDS011;23686;49.828;8.702;2022-09-17T03:31:10;6.13;;;1.90;;
37845;SDS011;23686;49.828;8.702;2022-09-17T03:33:35;4.03;;;1.77;;
37845;SDS011;23686;49.828;8.702;2022-09-17T03:36:01;9.60;;;1.80;;
37845;SDS011;23686;49.828;8.702;2022-09-17T03:38:26;7.75;;;1.80;;
37845;SDS011;23686;49.828;8.702;2022-09-17T03:40:56;5.93;;;1.70;;
37845;SDS011;23686;49.828;8.702;2022-09-17T03:43:22;5.18;;;2.17;;
37845;SDS011;23686;49.828;8.702;2022-09-17T03:45:47;3.78;;;2.05;;
37845;SDS011;23686;49.828;8.702;2022-09-17T03:48:13;5.25;;;2.08;;
37845;SDS011;23686;49.828;8.702;2022-09-17T03:50:39;3.97;;;1.52;;
37845;SDS011;23686;49.828;8.702;2022-09-17T03:53:04;10.77;;;1.77;;
37845;SDS011;23686;49.828;8.702;2022-09-17T03:55:30;4.45;;;1.75;;
37845;SDS011;23686;49.828;8.702;2022-09-17T03:57:56;8.48;;;2.00;;
37845;SDS011;23686;49.828;8.702;2022-09-17T04:00:21;4.35;;;1.70;;
37845;SDS011;23686;49.828;8.702;2022-09-17T04:02:48;5.13;;;1.80;;
37845;SDS011;23686;49.828;8.702;2022-09-17T04:05:13;3.25;;;1.75;;
37845;SDS011;23686;49.828;8.702;2022-09-17T04:07:39;3.72;;;1.60;;
37845;SDS011;23686;49.828;8.702;2022-09-17T04:10:05;6.43;;;2.03;;
37845;SDS011;23686;49.828;8.702;2022-09-17T04:12:31;5.25;;;1.70;;
37845;SDS011;23686;49.828;8.702;2022-09-17T04:14:57;5.97;;;2.20;;
37845;SDS011;23686;49.828;8.702;2022-09-17T04:17:22;9.98;;;2.20;;
37845;SDS011;23686;49.828;8.702;2022-09-17T04:19:48;4.47;;;1.90;;
37845;SDS011;23686;49.828;8.702;2022-09-17T04:22:14;7.35;;;2.55;;
37845;SDS011;23686;49.828;8.702;2022-09-17T04:24:40;5.68;;;1.75;;
37845;SDS011;23686;49.828;8.702;2022-09-17T04:27:05;2.97;;;2.15;;
37845;SDS011;23686;49.828;8.702;2022-09-17T04:29:31;4.68;;;1.98;;
37845;SDS011;23686;49.828;8.702;2022-09-17T04:31:56;7.20;;;2.13;;
37845;SDS011;23686;49.828;8.702;2022-09-17T04:34:22;5.43;;;1.80;;
37845;SDS011;23686;49.828;8.702;2022-09-17T04:36:47;5.18;;;1.75;;
37845;SDS011;23686;49.828;8.702;2022-09-17T04:39:13;3.85;;;2.03;;
37845;SDS011;23686;49.828;8.702;2022-09-17T04:41:39;5.72;;;2.67;;
37845;SDS011;23686;49.828;8.702;2022-09-17T04:44:04;7.35;;;1.90;;
37845;SDS011;23686;49.828;8.702;2022-09-17T04:46:30;6.82;;;2.38;;
37845;SDS011;23686;49.828;8.702;2022-09-17T04:48:56;4.20;;;1.90;;
37845;SDS011;23686;49.828;8.702;2022-09-17T04:51:21;8.07;;;2.17;;
37845;SDS011;23686;49.828;8.702;2022-09-17T04:53:47;8.77;;;2.05;;
37845;SDS011;23686;49.828;8.702;2022-09-17T04:56:12;4.43;;;1.60;;
37845;SDS011;23686;49.828;8.702;2022-09-17T04:58:38;9.60;;;2.58;;
37845;SDS011;23686;49.828;8.702;2022-09-17T05:01:03;3.95;;;2.03;;
37845;SDS011;23686;49.828;8.702;2022-09-17T05:03:29;6.75;;;2.58;;
37845;SDS011;23686;49.828;8.702;2022-09-17T05:05:55;5.38;;;2.38;;
37845;SDS011;23686;49.828;8.702;2022-09-17T05:08:20;6.53;;;2.10;;
37845;SDS011;23686;49.828;8.702;2022-09-17T05:10:48;5.65;;;2.40;;
37845;SDS011;23686;49.828;8.702;2022-09-17T05:13:15;5.47;;;2.10;;
37845;SDS011;23686;49.828;8.702;2022-09-17T05:15:40;9.73;;;2.40;;
37845;SDS011;23686;49.828;8.702;2022-09-17T05:18:06;3.35;;;1.80;;
37845;SDS011;23686;49.828;8.702;2022-09-17T05:20:31;3.17;;;2.15;;
37845;SDS011;23686;49.828;8.702;2022-09-17T05:22:57;6.00;;;2.53;;
37845;SDS011;23686;49.828;8.702;2022-09-17T05:25:22;8.45;;;2.17;;
37845;SDS011;23686;49.828;8.702;2022-09-17T05:27:48;7.20;;;2.38;;
37845;SDS011;23686;49.828;8.702;2022-09-17T05:30:16;4.82;;;2.17;;
37845;SDS011;23686;49.828;8.702;2022-09-17T05:32:41;8.25;;;3.28;;
37845;SDS011;23686;49.828;8.702;2022-09-17T05:35:07;6.45;;;2.92;;
37845;SDS011;23686;49.828;8.702;2022-09-17T05:37:33;7.72;;;2.58;;
37845;SDS011;23686;49.828;8.702;2022-09-17T05:39:59;9.10;;;2.50;;
37845;SDS011;23686;49.828;8.702;2022-09-17T05:42:25;6.20;;;2.85;;
37845;SDS011;23686;49.828;8.702;2022-09-17T05:44:51;5.30;;;3.28;;
37845;SDS011;23686;49.828;8.702;2022-09-17T05:47:17;9.05;;;2.90;;
37845;SDS011;23686;49.828;8.702;2022-09-17T05:49:42;5.13;;;2.75;;
37845;SDS011;23686;49.828;8.702;2022-09-17T05:52:08;7.95;;;3.00;;
37845;SDS011;23686;49.828;8.702;2022-09-17T05:54:33;6.85;;;3.17;;
37845;SDS011;23686;49.828;8.702;2022-09-17T05:56:59;5.22;;;2.85;;
37845;SDS011;23686;49.828;8.702;2022-09-17T05:59:25;5.10;;;2.72;;
37845;SDS011;23686;49.828;8.702;2022-09-17T06:01:52;8.57;;;3.17;;
37845;SDS011;23686;49.828;8.702;2022-09-17T06:04:17;8.57;;;3.22;;
37845;SDS011;23686;49.828;8.702;2022-09-17T06:06:43;7.55;;;2.67;;
37845;SDS011;23686;49.828;8.702;2022-09-17T06:09:09;6.22;;;2.63;;
37845;SDS011;23686;49.828;8.702;2022-09-17T06:11:35;5.68;;;2.67;;
37845;SDS011;23686;49.828;8.702;2022-09-17T06:14:01;6.68;;;2.15;;
37845;SDS011;23686;49.828;8.702;2022-09-17T06:16:27;3.95;;;2.28;;
37845;SDS011;23686;49.828;8.702;2022-09-17T06:18:52;5.28;;;2.53;;
37845;SDS011;23686;49.828;8.702;2022-09-17T06:21:18;5.18;;;2.17;;
37845;SDS011;23686;49.828;8.702;2022-09-17T06:23:48;5.60;;;2.30;;
37845;SDS011;23686;49.828;8.702;2022-09-17T06:26:14;7.95;;;3.40;;
37845;SDS011;23686;49.828;8.702;2022-09-17T06:28:40;4.85;;;2.63;;
37845;SDS011;23686;49.828;8.702;2022-09-17T06:31:06;5.45;;;2.95;;
37845;SDS011;23686;49.828;8.702;2022-09-17T06:33:33;5.72;;;2.53;;
37845;SDS011;23686;49.828;8.702;2022-09-17T06:36:01;7.50;;;2.38;;
37845;SDS011;23686;49.828;8.702;2022-09-17T06:38:29;4.25;;;2.13;;
37845;SDS011;23686;49.828;8.702;2022-09-17T06:40:55;4.93;;;2.38;;
37845;SDS011;23686;49.828;8.702;2022-09-17T06:43:21;10.02;;;2.60;;
37845;SDS011;23686;49.828;8.702;2022-09-17T06:45:51;8.93;;;2.50;;
37845;SDS011;23686;49.828;8.702;2022-09-17T06:48:21;6.75;;;2.97;;
37845;SDS011;23686;49.828;8.702;2022-09-17T06:50:47;8.32;;;2.53;;
37845;SDS011;23686;49.828;8.702;2022-09-17T06:53:14;6.68;;;2.17;;
37845;SDS011;23686;49.828;8.702;2022-09-17T06:55:39;8.27;;;2.47;;
37845;SDS011;23686;49.828;8.702;2022-09-17T06:58:05;5.07;;;2.42;;
37845;SDS011;23686;49.828;8.702;2022-09-17T07:00:31;7.28;;;2.00;;
37845;SDS011;23686;49.828;8.702;2022-09-17T07:02:57;6.03;;;2.28;;
37845;SDS011;23686;49.828;8.702;2022-09-17T07:05:24;6.97;;;2.50;;
37845;SDS011;23686;49.828;8.702;2022-09-17T07:07:51;7.00;;;2.47;;
37845;SDS011;23686;49.828;8.702;2022-09-17T07:10:16;5.55;;;2.10;;
37845;SDS011;23686;49.828;8.702;2022-09-17T07:12:42;4.32;;;2.20;;
37845;SDS011;23686;49.828;8.702;2022-09-17T07:15:08;6.82;;;2.10;;
37845;SDS011;23686;49.828;8.702;2022-09-17T07:17:35;9.20;;;2.60;;
37845;SDS011;23686;49.828;8.702;2022-09-17T07:20:02;6.90;;;2.33;;
37845;SDS011;23686;49.828;8.702;2022-09-17T07:22:27;8.85;;;2.38;;
37845;SDS011;23686;49.828;8.702;2022-09-17T07:24:53;6.10;;;2.35;;
37845;SDS011;23686;49.828;8.702;2022-09-17T07:27:18;4.20;;;2.08;;
37845;SDS011;23686;49.828;8.702;2022-09-17T07:29:45;8.05;;;2.13;;
37845;SDS011;23686;49.828;8.702;2022-09-17T07:32:11;6.93;;;2.38;;
37845;SDS011;23686;49.828;8.702;2022-09-17T07:34:36;6.38;;;2.75;;
37845;SDS011;23686;49.828;8.702;2022-09-17T07:37:02;10.05;;;2.33;;
37845;SDS011;23686;49.828;8.702;2022-09-17T07:39:27;7.32;;;2.13;;
37845;SDS011;23686;49.828;8.702;2022-09-17T07:41:53;5.90;;;2.10;;
37845;SDS011;23686;49.828;8.702;2022-09-17T07:44:18;6.93;;;2.25;;
37845;SDS011;23686;49.828;8.702;2022-09-17T07:46:46;7.43;;;2.67;;
37845;SDS011;23686;49.828;8.702;2022-09-17T07:49:11;7.82;;;2.50;;
37845;SDS011;23686;49.828;8.702;2022-09-17T07:51:37;10.93;;;3.35;;
37845;SDS011;23686;49.828;8.702;2022-09-17T07:54:02;10.57;;;2.60;;
37845;SDS011;23686;49.828;8.702;2022-09-17T07:56:28;7.55;;;2.33;;
37845;SDS011;23686;49.828;8.702;2022-09-17T07:58:54;8.73;;;2.22;;
37845;SDS011;23686;49.828;8.702;2022-09-17T08:01:19;6.32;;;2.10;;
37845;SDS011;23686;49.828;8.702;2022-09-17T08:03:50;10.15;;;2.35;;
37845;SDS011;23686;49.828;8.702;2022-09-17T08:06:18;6.25;;;1.92;;
37845;SDS011;23686;49.828;8.702;2022-09-17T08:09:02;9.82;;;2.47;;
37845;SDS011;23686;49.828;8.702;2022-09-17T08:11:28;7.70;;;1.88;;
37845;SDS011;23686;49.828;8.702;2022-09-17T08:13:55;8.43;;;2.08;;
37845;SDS011;23686;49.828;8.702;2022-09-17T08:16:21;7.70;;;2.55;;
37845;SDS011;23686;49.828;8.702;2022-09-17T08:18:47;7.13;;;2.80;;
37845;SDS011;23686;49.828;8.702;2022-09-17T08:21:14;9.45;;;2.72;;
37845;SDS011;23686;49.828;8.702;2022-09-17T08:23:41;7.97;;;2.58;;
37845;SDS011;23686;49.828;8.702;2022-09-17T08:26:18;6.30;;;2.38;;
37845;SDS011;23686;49.828;8.702;2022-09-17T08:31:16;7.30;;;2.45;;
37845;SDS011;23686;49.828;8.702;2022-09-17T08:33:43;11.18;;;3.28;;
37845;SDS011;23686;49.828;8.702;2022-09-17T08:36:10;10.25;;;3.30;;
37845;SDS011;23686;49.828;8.702;2022-09-17T08:38:38;13.85;;;3.03;;
37845;SDS011;23686;49.828;8.702;2022-09-17T08:54:38;11.57;;;2.33;;
37845;SDS011;23686;49.828;8.702;2022-09-17T09:00:10;10.23;;;2.55;;
37845;SDS011;23686;49.828;8.702;2022-09-17T09:03:25;7.88;;;2.38;;
37845;SDS011;23686;49.828;8.702;2022-09-17T09:05:51;8.27;;;2.10;;
37845;SDS011;23686;49.828;8.702;2022-09-17T09:08:30;7.72;;;2.72;;
37845;SDS011;23686;49.828;8.702;2022-09-17T09:11:04;6.47;;;2.28;;
37845;SDS011;23686;49.828;8.702;2022-09-17T09:13:37;7.68;;;1.95;;
37845;SDS011;23686;49.828;8.702;2022-09-17T09:16:11;5.40;;;2.03;;
37845;SDS011;23686;49.828;8.702;2022-09-17T09:18:43;5.90;;;1.60;;
37845;SDS011;23686;49.828;8.702;2022-09-17T09:29:20;8.88;;;2.03;;
37845;SDS011;23686;49.828;8.702;2022-09-17T09:32:05;8.13;;;2.10;;
37845;SDS011;23686;49.828;8.702;2022-09-17T09:34:51;22.55;;;2.53;;
37845;SDS011;23686;49.828;8.702;2022-09-17T09:39:52;5.57;;;1.90;;
37845;SDS011;23686;49.828;8.702;2022-09-17T09:45:05;9.73;;;3.45;;
37845;SDS011;23686;49.828;8.702;2022-09-17T09:47:41;8.63;;;2.35;;
37845;SDS011;23686;49.828;8.702;2022-09-17T09:59:05;5.90;;;1.90;;
37845;SDS011;23686;49.828;8.702;2022-09-17T10:01:31;5.18;;;1.50;;
37845;SDS011;23686;49.828;8.702;2022-09-17T10:04:01;10.30;;;2.03;;
37845;SDS011;23686;49.828;8.702;2022-09-17T10:06:46;5.80;;;2.00;;
37845;SDS011;23686;49.828;8.702;2022-09-17T10:09:15;8.02;;;2.03;;
37845;SDS011;23686;49.828;8.702;2022-09-17T10:11:58;11.90;;;2.58;;
37845;SDS011;23686;49.828;8.702;2022-09-17T10:14:30;7.63;;;2.05;;
37845;SDS011;23686;49.828;8.702;2022-09-17T10:17:14;5.35;;;2.20;;
37845;SDS011;23686;49.828;8.702;2022-09-17T10:22:31;8.25;;;2.42;;
37845;SDS011;23686;49.828;8.702;2022-09-17T10:24:58;11.63;;;2.20;;
37845;SDS011;23686;49.828;8.702;2022-09-17T10:27:24;5.70;;;2.13;;
37845;SDS011;23686;49.828;8.702;2022-09-17T10:32:37;8.82;;;2.15;;
37845;SDS011;23686;49.828;8.702;2022-09-17T10:35:04;3.90;;;1.30;;
37845;SDS011;23686;49.828;8.702;2022-09-17T10:37:48;5.90;;;1.38;;
37845;SDS011;23686;49.828;8.702;2022-09-17T10:42:48;3.17;;;1.10;;
37845;SDS011;23686;49.828;8.702;2022-09-17T10:45:25;6.18;;;1.83;;
37845;SDS011;23686;49.828;8.702;2022-09-17T10:47:51;2.08;;;1.20;;
37845;SDS011;23686;49.828;8.702;2022-09-17T10:50:28;5.57;;;1.55;;
37845;SDS011;23686;49.828;8.702;2022-09-17T10:53:01;2.65;;;1.67;;
37845;SDS011;23686;49.828;8.702;2022-09-17T10:55:37;4.63;;;1.25;;
37845;SDS011;23686;49.828;8.702;2022-09-17T10:58:34;6.68;;;1.30;;
37845;SDS011;23686;49.828;8.702;2022-09-17T11:01:22;3.22;;;1.65;;
37845;SDS011;23686;49.828;8.702;2022-09-17T11:04:19;3.58;;;1.10;;
37845;SDS011;23686;49.828;8.702;2022-09-17T11:12:39;3.67;;;1.35;;
37845;SDS011;23686;49.828;8.702;2022-09-17T11:15:22;3.70;;;1.17;;
37845;SDS011;23686;49.828;8.702;2022-09-17T11:18:03;3.95;;;1.10;;
37845;SDS011;23686;49.828;8.702;2022-09-17T11:26:45;7.30;;;1.40;;
37845;SDS011;23686;49.828;8.702;2022-09-17T11:35:23;5.40;;;1.63;;
37845;SDS011;23686;49.828;8.702;2022-09-17T11:38:09;5.68;;;1.55;;
37845;SDS011;23686;49.828;8.702;2022-09-17T11:43:45;6.75;;;1.83;;
37845;SDS011;23686;49.828;8.702;2022-09-17T11:46:24;6.85;;;1.50;;
37845;SDS011;23686;49.828;8.702;2022-09-17T11:48:57;4.40;;;1.48;;
37845;SDS011;23686;49.828;8.702;2022-09-17T11:51:39;7.97;;;1.83;;
37845;SDS011;23686;49.828;8.702;2022-09-17T11:57:24;6.43;;;1.48;;
37845;SDS011;23686;49.828;8.702;2022-09-17T12:00:11;12.15;;;2.00;;
37845;SDS011;23686;49.828;8.702;2022-09-17T12:08:17;4.03;;;1.83;;
37845;SDS011;23686;49.828;8.702;2022-09-17T12:16:49;5.53;;;1.70;;
37845;SDS011;23686;49.828;8.702;2022-09-17T12:24:49;9.32;;;1.58;;
37845;SDS011;23686;49.828;8.702;2022-09-17T12:30:09;5.88;;;1.20;;
37845;SDS011;23686;49.828;8.702;2022-09-17T12:38:11;7.72;;;1.42;;
37845;SDS011;23686;49.828;8.702;2022-09-17T12:53:53;5.82;;;1.55;;
37845;SDS011;23686;49.828;8.702;2022-09-17T12:59:31;7.45;;;1.50;;
37845;SDS011;23686;49.828;8.702;2022-09-17T13:04:59;4.97;;;1.10;;
37845;SDS011;23686;49.828;8.702;2022-09-17T13:13:38;4.82;;;1.40;;
37845;SDS011;23686;49.828;8.702;2022-09-17T13:16:32;2.88;;;1.30;;
37845;SDS011;23686;49.828;8.702;2022-09-17T13:19:25;3.67;;;0.95;;
37845;SDS011;23686;49.828;8.702;2022-09-17T13:22:08;3.60;;;0.85;;
37845;SDS011;23686;49.828;8.702;2022-09-17T13:24:44;6.85;;;0.80;;
37845;SDS011;23686;49.828;8.702;2022-09-17T13:27:23;2.75;;;0.80;;
37845;SDS011;23686;49.828;8.702;2022-09-17T13:37:41;3.42;;;0.82;;
37845;SDS011;23686;49.828;8.702;2022-09-17T13:40:20;3.08;;;0.95;;
37845;SDS011;23686;49.828;8.702;2022-09-17T13:45:30;4.47;;;0.90;;
37845;SDS011;23686;49.828;8.702;2022-09-17T13:50:39;2.88;;;0.82;;
37845;SDS011;23686;49.828;8.702;2022-09-17T13:55:48;2.65;;;0.77;;
37845;SDS011;23686;49.828;8.702;2022-09-17T14:05:55;2.55;;;1.05;;
37845;SDS011;23686;49.828;8.702;2022-09-17T14:08:45;1.88;;;0.70;;
37845;SDS011;23686;49.828;8.702;2022-09-17T14:22:14;5.38;;;1.05;;
37845;SDS011;23686;49.828;8.702;2022-09-17T14:24:48;4.13;;;1.13;;
37845;SDS011;23686;49.828;8.702;2022-09-17T14:30:14;3.07;;;0.80;;
37845;SDS011;23686;49.828;8.702;2022-09-17T14:40:44;1.92;;;1.25;;
37845;SDS011;23686;49.828;8.702;2022-09-17T14:43:17;2.25;;;1.00;;
37845;SDS011;23686;49.828;8.702;2022-09-17T14:45:57;2.92;;;1.00;;
37845;SDS011;23686;49.828;8.702;2022-09-17T14:51:15;2.58;;;0.90;;
37845;SDS011;23686;49.828;8.702;2022-09-17T14:53:46;2.08;;;0.80;;
37845;SDS011;23686;49.828;8.702;2022-09-17T14:56:34;4.22;;;0.77;;
37845;SDS011;23686;49.828;8.702;2022-09-17T14:59:08;2.13;;;0.70;;
37845;SDS011;23686;49.828;8.702;2022-09-17T15:01:59;1.50;;;0.50;;
37845;SDS011;23686;49.828;8.702;2022-09-17T15:04:28;1.70;;;0.50;;
37845;SDS011;23686;49.828;8.702;2022-09-17T15:07:07;5.47;;;1.38;;
37845;SDS011;23686;49.828;8.702;2022-09-17T15:09:38;2.03;;;0.88;;
37845;SDS011;23686;49.828;8.702;2022-09-17T15:12:04;1.30;;;0.70;;
37845;SDS011;23686;49.828;8.702;2022-09-17T15:14:34;1.90;;;0.40;;
37845;SDS011;23686;49.828;8.702;2022-09-17T15:17:04;0.60;;;0.30;;
37845;SDS011;23686;49.828;8.702;2022-09-17T15:19:36;0.90;;;0.40;;
37845;SDS011;23686;49.828;8.702;2022-09-17T15:22:19;1.70;;;0.30;;
37845;SDS011;23686;49.828;8.702;2022-09-17T15:25:08;1.80;;;0.50;;
37845;SDS011;23686;49.828;8.702;2022-09-17T15:27:41;0.95;;;0.43;;
37845;SDS011;23686;49.828;8.702;2022-09-17T15:30:18;2.65;;;0.40;;
37845;SDS011;23686;49.828;8.702;2022-09-17T15:32:58;0.88;;;0.30;;
37845;SDS011;23686;49.828;8.702;2022-09-17T15:40:48;0.93;;;0.75;;
37845;SDS011;23686;49.828;8.702;2022-09-17T15:43:24;0.90;;;0.50;;
37845;SDS011;23686;49.828;8.702;2022-09-17T15:45:56;0.57;;;0.50;;
37845;SDS011;23686;49.828;8.702;2022-09-17T15:51:04;2.50;;;0.90;;
37845;SDS011;23686;49.828;8.702;2022-09-17T15:56:54;4.07;;;0.82;;
37845;SDS011;23686;49.828;8.702;2022-09-17T15:59:30;1.77;;;0.70;;
37845;SDS011;23686;49.828;8.702;2022-09-17T16:01:58;0.98;;;0.63;;
37845;SDS011;23686;49.828;8.702;2022-09-17T16:09:48;3.42;;;1.13;;
37845;SDS011;23686;49.828;8.702;2022-09-17T16:12:21;3.25;;;0.82;;
37845;SDS011;23686;49.828;8.702;2022-09-17T16:14:49;1.90;;;0.85;;
37845;SDS011;23686;49.828;8.702;2022-09-17T16:19:54;2.00;;;0.82;;
37845;SDS011;23686;49.828;8.702;2022-09-17T16:24:47;3.50;;;1.10;;
37845;SDS011;23686;49.828;8.702;2022-09-17T16:27:23;2.58;;;0.90;;
37845;SDS011;23686;49.828;8.702;2022-09-17T16:29:58;1.75;;;0.80;;
37845;SDS011;23686;49.828;8.702;2022-09-17T16:32:27;1.80;;;1.02;;
37845;SDS011;23686;49.828;8.702;2022-09-17T16:34:52;4.10;;;1.10;;
37845;SDS011;23686;49.828;8.702;2022-09-17T16:37:21;3.38;;;0.85;;
37845;SDS011;23686;49.828;8.702;2022-09-17T16:39:46;2.50;;;1.20;;
37845;SDS011;23686;49.828;8.702;2022-09-17T16:42:12;2.55;;;0.98;;
37845;SDS011;23686;49.828;8.702;2022-09-17T16:44:38;2.75;;;0.95;;
37845;SDS011;23686;49.828;8.702;2022-09-17T16:47:04;2.58;;;0.85;;
37845;SDS011;23686;49.828;8.702;2022-09-17T16:49:32;1.40;;;0.80;;
37845;SDS011;23686;49.828;8.702;2022-09-17T16:51:58;2.47;;;1.20;;
37845;SDS011;23686;49.828;8.702;2022-09-17T16:54:24;2.92;;;1.02;;
37845;SDS011;23686;49.828;8.702;2022-09-17T16:56:50;4.95;;;1.15;;
37845;SDS011;23686;49.828;8.702;2022-09-17T16:59:16;4.00;;;1.17;;
37845;SDS011;23686;49.828;8.702;2022-09-17T17:01:52;1.02;;;0.85;;
37845;SDS011;23686;49.828;8.702;2022-09-17T17:06:57;1.83;;;0.70;;
37845;SDS011;23686;49.828;8.702;2022-09-17T17:09:24;2.85;;;0.93;;
37845;SDS011;23686;49.828;8.702;2022-09-17T17:11:55;3.88;;;1.30;;
37845;SDS011;23686;49.828;8.702;2022-09-17T17:16:55;3.90;;;2.55;;
37845;SDS011;23686;49.828;8.702;2022-09-17T17:19:21;6.95;;;3.70;;
37845;SDS011;23686;49.828;8.702;2022-09-17T17:21:51;3.40;;;1.73;;
37845;SDS011;23686;49.828;8.702;2022-09-17T17:24:24;2.22;;;1.10;;
37845;SDS011;23686;49.828;8.702;2022-09-17T17:27:05;4.78;;;1.75;;
37845;SDS011;23686;49.828;8.702;2022-09-17T17:29:32;3.60;;;1.30;;
37845;SDS011;23686;49.828;8.702;2022-09-17T17:32:00;2.25;;;1.42;;
37845;SDS011;23686;49.828;8.702;2022-09-17T17:34:31;4.73;;;1.27;;
37845;SDS011;23686;49.828;8.702;2022-09-17T17:36:56;2.85;;;1.17;;
37845;SDS011;23686;49.828;8.702;2022-09-17T17:39:25;2.55;;;1.10;;
37845;SDS011;23686;49.828;8.702;2022-09-17T17:41:57;2.40;;;0.70;;
37845;SDS011;23686;49.828;8.702;2022-09-17T17:44:29;0.80;;;0.65;;
37845;SDS011;23686;49.828;8.702;2022-09-17T17:46:55;1.50;;;0.70;;
37845;SDS011;23686;49.828;8.702;2022-09-17T17:49:26;1.00;;;0.90;;
37845;SDS011;23686;49.828;8.702;2022-09-17T17:51:55;4.10;;;1.63;;
37845;SDS011;23686;49.828;8.702;2022-09-17T17:54:20;2.45;;;1.17;;
37845;SDS011;23686;49.828;8.702;2022-09-17T17:56:49;2.60;;;1.38;;
37845;SDS011;23686;49.828;8.702;2022-09-17T17:59:17;5.80;;;1.33;;
37845;SDS011;23686;49.828;8.702;2022-09-17T18:04:15;3.33;;;0.88;;
37845;SDS011;23686;49.828;8.702;2022-09-17T18:06:43;4.90;;;0.88;;
37845;SDS011;23686;49.828;8.702;2022-09-17T18:09:13;1.70;;;1.02;;
37845;SDS011;23686;49.828;8.702;2022-09-17T18:11:39;4.20;;;1.33;;
37845;SDS011;23686;49.828;8.702;2022-09-17T18:14:09;3.20;;;1.10;;
37845;SDS011;23686;49.828;8.702;2022-09-17T18:16:40;3.83;;;0.75;;
37845;SDS011;23686;49.828;8.702;2022-09-17T18:19:06;0.90;;;0.50;;
37845;SDS011;23686;49.828;8.702;2022-09-17T18:21:36;2.50;;;0.80;;
37845;SDS011;23686;49.828;8.702;2022-09-17T18:24:05;2.85;;;0.73;;
37845;SDS011;23686;49.828;8.702;2022-09-17T18:26:34;3.25;;;0.93;;
37845;SDS011;23686;49.828;8.702;2022-09-17T18:31:58;1.13;;;0.95;;
37845;SDS011;23686;49.828;8.702;2022-09-17T18:34:30;4.05;;;1.65;;
37845;SDS011;23686;49.828;8.702;2022-09-17T18:37:00;5.55;;;4.03;;
37845;SDS011;23686;49.828;8.702;2022-09-17T18:39:27;5.45;;;3.28;;
37845;SDS011;23686;49.828;8.702;2022-09-17T18:41:58;2.95;;;2.00;;
37845;SDS011;23686;49.828;8.702;2022-09-17T18:44:30;3.58;;;1.50;;
37845;SDS011;23686;49.828;8.702;2022-09-17T18:46:56;2.35;;;1.15;;
37845;SDS011;23686;49.828;8.702;2022-09-17T18:49:21;1.30;;;0.93;;
37845;SDS011;23686;49.828;8.702;2022-09-17T18:51:47;2.67;;;1.13;;
37845;SDS011;23686;49.828;8.702;2022-09-17T18:54:13;1.63;;;1.20;;
37845;SDS011;23686;49.828;8.702;2022-09-17T18:56:39;2.38;;;1.20;;
37845;SDS011;23686;49.828;8.702;2022-09-17T18:59:05;3.53;;;1.20;;
37845;SDS011;23686;49.828;8.702;2022-09-17T19:01:31;3.25;;;1.50;;
37845;SDS011;23686;49.828;8.702;2022-09-17T19:03:57;3.65;;;1.90;;
37845;SDS011;23686;49.828;8.702;2022-09-17T19:06:23;2.28;;;1.38;;
37845;SDS011;23686;49.828;8.702;2022-09-17T19:08:50;4.70;;;1.63;;
37845;SDS011;23686;49.828;8.702;2022-09-17T19:11:17;2.92;;;1.67;;
37845;SDS011;23686;49.828;8.702;2022-09-17T19:13:44;3.30;;;1.40;;